メインページ
METAR-TAF:

METAR-TAF

空港 :

テヘラン, イラン

メヘラーバード国際空港

緯度: 35-41N, 経度: 051-21E, 海抜: 1204m

現時点の気象観測

当レポートは44分前の14:00(UTC)に作成
の風 6kt
気温 38°C
湿度 8%
気圧 1010 hPa
視程10km以上
高度4000ftの雲はほとんどない

METAR: OIII 271400Z 18006KT 9999 FEW040 38/M02 Q1009 A2982 NOSIG

時間: 19:14 (14:44 UTC)

予報

当レポートは3時間44分前の11:00(UTC)に作成
予報は27日の 12時(UTC)から 28日の 18時(UTC)まで有効
南東の風 10kt
視程: 8000m
高度4000ftの雲はほとんどない
27日の 18時(UTC)から 27日の 20時(UTC)まで徐々に
北東の風 8kt
28日の 05時(UTC)から 28日の 07時(UTC)まで徐々に
南東の風 10kt
28日の 12時(UTC)から 28日の 18時(UTC)まで一時的に
高度4000ftの雲は散在している

TAF: OIII 271100Z 2712/2818 14005MPS 8000 FEW040 BECMG 2718/2720 05004MPS BECMG 2805/2807 14005MPS TEMPO 2812/2818 SCT040

4,000以上の空港の気象観測と天気予報(METAR報とTAF報)

利用可能な観測所は地図上に黄色い丸と赤い丸で示す。

丸の上にカーソルを重ねると観測所名を参照できる。

次にクリックすると気象観測と天気予報を参照できる。

マップの切り替え:黒色「×」印の緑ボタンをクリックして拡大、「-」印の緑ボタンをクリックして縮小、緑色の三角印をクリックして隣りの地図に切り替え


METAR-TAF: